sensor_id;sensor_type;location;lat;lon;timestamp;P1;durP1;ratioP1;P2;durP2;ratioP2
55069;SDS011;40967;52.070;8.596;2022-07-30T00:01:31;0.40;;;0.40;;
55069;SDS011;40967;52.070;8.596;2022-07-30T00:03:58;0.65;;;0.50;;
55069;SDS011;40967;52.070;8.596;2022-07-30T00:06:24;1.10;;;0.60;;
55069;SDS011;40967;52.070;8.596;2022-07-30T00:08:49;0.77;;;0.50;;
55069;SDS011;40967;52.070;8.596;2022-07-30T00:11:14;0.80;;;0.53;;
55069;SDS011;40967;52.070;8.596;2022-07-30T00:13:40;1.30;;;0.70;;
55069;SDS011;40967;52.070;8.596;2022-07-30T00:16:05;0.87;;;0.60;;
55069;SDS011;40967;52.070;8.596;2022-07-30T00:18:31;1.08;;;0.70;;
55069;SDS011;40967;52.070;8.596;2022-07-30T00:20:57;0.70;;;0.50;;
55069;SDS011;40967;52.070;8.596;2022-07-30T00:23:22;0.67;;;0.40;;
55069;SDS011;40967;52.070;8.596;2022-07-30T00:25:47;0.67;;;0.60;;
55069;SDS011;40967;52.070;8.596;2022-07-30T00:28:13;1.03;;;0.70;;
55069;SDS011;40967;52.070;8.596;2022-07-30T00:30:38;1.03;;;0.60;;
55069;SDS011;40967;52.070;8.596;2022-07-30T00:33:04;0.75;;;0.40;;
55069;SDS011;40967;52.070;8.596;2022-07-30T00:35:30;1.30;;;0.60;;
55069;SDS011;40967;52.070;8.596;2022-07-30T00:37:55;0.60;;;0.43;;
55069;SDS011;40967;52.070;8.596;2022-07-30T00:40:21;0.60;;;0.40;;
55069;SDS011;40967;52.070;8.596;2022-07-30T00:42:46;0.80;;;0.50;;
55069;SDS011;40967;52.070;8.596;2022-07-30T00:45:13;0.65;;;0.50;;
55069;SDS011;40967;52.070;8.596;2022-07-30T00:47:39;1.00;;;0.50;;
55069;SDS011;40967;52.070;8.596;2022-07-30T00:50:05;1.13;;;0.68;;
55069;SDS011;40967;52.070;8.596;2022-07-30T00:52:32;0.90;;;0.52;;
55069;SDS011;40967;52.070;8.596;2022-07-30T00:54:58;1.05;;;0.60;;
55069;SDS011;40967;52.070;8.596;2022-07-30T00:57:25;0.50;;;0.43;;
55069;SDS011;40967;52.070;8.596;2022-07-30T00:59:51;0.70;;;0.52;;
55069;SDS011;40967;52.070;8.596;2022-07-30T01:02:17;0.88;;;0.60;;
55069;SDS011;40967;52.070;8.596;2022-07-30T01:04:43;0.70;;;0.57;;
55069;SDS011;40967;52.070;8.596;2022-07-30T01:07:09;1.07;;;0.70;;
55069;SDS011;40967;52.070;8.596;2022-07-30T01:09:34;1.30;;;0.60;;
55069;SDS011;40967;52.070;8.596;2022-07-30T01:12:00;1.17;;;0.70;;
55069;SDS011;40967;52.070;8.596;2022-07-30T01:14:26;1.50;;;0.90;;
55069;SDS011;40967;52.070;8.596;2022-07-30T01:16:52;1.43;;;0.90;;
55069;SDS011;40967;52.070;8.596;2022-07-30T01:19:23;1.05;;;0.75;;
55069;SDS011;40967;52.070;8.596;2022-07-30T01:22:20;1.33;;;0.75;;
55069;SDS011;40967;52.070;8.596;2022-07-30T01:27:23;0.93;;;0.70;;
55069;SDS011;40967;52.070;8.596;2022-07-30T01:29:51;1.17;;;0.77;;
55069;SDS011;40967;52.070;8.596;2022-07-30T01:32:19;0.75;;;0.60;;
55069;SDS011;40967;52.070;8.596;2022-07-30T01:34:47;0.55;;;0.50;;
55069;SDS011;40967;52.070;8.596;2022-07-30T01:37:14;1.10;;;0.70;;
55069;SDS011;40967;52.070;8.596;2022-07-30T01:39:41;0.80;;;0.68;;
55069;SDS011;40967;52.070;8.596;2022-07-30T01:42:08;1.40;;;0.80;;
55069;SDS011;40967;52.070;8.596;2022-07-30T01:44:38;1.33;;;0.70;;
55069;SDS011;40967;52.070;8.596;2022-07-30T01:47:05;1.27;;;0.80;;
55069;SDS011;40967;52.070;8.596;2022-07-30T01:49:32;1.17;;;0.70;;
55069;SDS011;40967;52.070;8.596;2022-07-30T01:52:00;1.20;;;0.75;;
55069;SDS011;40967;52.070;8.596;2022-07-30T01:54:26;0.88;;;0.70;;
55069;SDS011;40967;52.070;8.596;2022-07-30T01:56:55;1.25;;;0.75;;
55069;SDS011;40967;52.070;8.596;2022-07-30T01:59:22;1.20;;;0.90;;
55069;SDS011;40967;52.070;8.596;2022-07-30T02:01:50;1.53;;;0.90;;
55069;SDS011;40967;52.070;8.596;2022-07-30T02:04:16;1.88;;;0.90;;
55069;SDS011;40967;52.070;8.596;2022-07-30T02:06:51;0.98;;;0.63;;
55069;SDS011;40967;52.070;8.596;2022-07-30T02:09:27;0.85;;;0.63;;
55069;SDS011;40967;52.070;8.596;2022-07-30T02:11:57;1.20;;;0.70;;
55069;SDS011;40967;52.070;8.596;2022-07-30T02:17:31;1.60;;;0.90;;
55069;SDS011;40967;52.070;8.596;2022-07-30T02:20:03;1.10;;;0.80;;
55069;SDS011;40967;52.070;8.596;2022-07-30T02:22:30;1.90;;;0.90;;
55069;SDS011;40967;52.070;8.596;2022-07-30T02:25:00;1.40;;;1.02;;
55069;SDS011;40967;52.070;8.596;2022-07-30T02:27:30;1.87;;;1.10;;
55069;SDS011;40967;52.070;8.596;2022-07-30T02:29:58;2.28;;;1.10;;
55069;SDS011;40967;52.070;8.596;2022-07-30T02:32:25;2.40;;;1.10;;
55069;SDS011;40967;52.070;8.596;2022-07-30T02:34:55;1.88;;;1.02;;
55069;SDS011;40967;52.070;8.596;2022-07-30T02:37:24;1.25;;;0.90;;
55069;SDS011;40967;52.070;8.596;2022-07-30T02:39:52;1.35;;;0.85;;
55069;SDS011;40967;52.070;8.596;2022-07-30T02:42:19;1.00;;;0.60;;
55069;SDS011;40967;52.070;8.596;2022-07-30T02:44:47;0.90;;;0.60;;
55069;SDS011;40967;52.070;8.596;2022-07-30T02:47:16;1.08;;;0.70;;
55069;SDS011;40967;52.070;8.596;2022-07-30T02:49:46;1.42;;;0.80;;
55069;SDS011;40967;52.070;8.596;2022-07-30T02:52:13;1.67;;;0.90;;
55069;SDS011;40967;52.070;8.596;2022-07-30T02:54:41;1.02;;;0.70;;
55069;SDS011;40967;52.070;8.596;2022-07-30T02:57:08;1.50;;;0.90;;
55069;SDS011;40967;52.070;8.596;2022-07-30T02:59:35;1.45;;;0.98;;
55069;SDS011;40967;52.070;8.596;2022-07-30T03:02:03;1.37;;;0.80;;
55069;SDS011;40967;52.070;8.596;2022-07-30T03:04:31;1.63;;;1.00;;
55069;SDS011;40967;52.070;8.596;2022-07-30T03:06:58;2.50;;;1.30;;
55069;SDS011;40967;52.070;8.596;2022-07-30T03:09:25;1.70;;;1.03;;
55069;SDS011;40967;52.070;8.596;2022-07-30T03:11:51;1.88;;;1.10;;
55069;SDS011;40967;52.070;8.596;2022-07-30T03:14:19;1.52;;;0.90;;
55069;SDS011;40967;52.070;8.596;2022-07-30T03:16:46;1.80;;;1.00;;
55069;SDS011;40967;52.070;8.596;2022-07-30T03:19:18;0.98;;;0.68;;
55069;SDS011;40967;52.070;8.596;2022-07-30T03:21:46;1.40;;;0.73;;
55069;SDS011;40967;52.070;8.596;2022-07-30T03:24:12;0.93;;;0.70;;
55069;SDS011;40967;52.070;8.596;2022-07-30T03:26:39;0.83;;;0.60;;
55069;SDS011;40967;52.070;8.596;2022-07-30T03:29:07;0.90;;;0.60;;
55069;SDS011;40967;52.070;8.596;2022-07-30T03:31:34;0.90;;;0.70;;
55069;SDS011;40967;52.070;8.596;2022-07-30T03:34:00;1.10;;;0.70;;
55069;SDS011;40967;52.070;8.596;2022-07-30T03:36:26;1.02;;;0.73;;
55069;SDS011;40967;52.070;8.596;2022-07-30T03:38:53;1.00;;;0.75;;
55069;SDS011;40967;52.070;8.596;2022-07-30T03:41:19;1.10;;;0.70;;
55069;SDS011;40967;52.070;8.596;2022-07-30T03:43:46;0.90;;;0.50;;
55069;SDS011;40967;52.070;8.596;2022-07-30T03:46:13;1.50;;;0.80;;
55069;SDS011;40967;52.070;8.596;2022-07-30T03:48:40;1.27;;;0.70;;
55069;SDS011;40967;52.070;8.596;2022-07-30T03:51:06;1.02;;;0.73;;
55069;SDS011;40967;52.070;8.596;2022-07-30T03:53:35;1.15;;;0.80;;
55069;SDS011;40967;52.070;8.596;2022-07-30T03:56:01;1.80;;;1.00;;
55069;SDS011;40967;52.070;8.596;2022-07-30T03:58:27;1.47;;;0.90;;
55069;SDS011;40967;52.070;8.596;2022-07-30T04:00:53;1.13;;;0.80;;
55069;SDS011;40967;52.070;8.596;2022-07-30T04:03:25;1.50;;;0.90;;
55069;SDS011;40967;52.070;8.596;2022-07-30T04:05:56;1.10;;;0.70;;
55069;SDS011;40967;52.070;8.596;2022-07-30T04:08:22;0.95;;;0.75;;
55069;SDS011;40967;52.070;8.596;2022-07-30T04:10:48;1.58;;;0.85;;
55069;SDS011;40967;52.070;8.596;2022-07-30T04:13:14;1.77;;;1.10;;
55069;SDS011;40967;52.070;8.596;2022-07-30T04:16:35;1.58;;;1.10;;
55069;SDS011;40967;52.070;8.596;2022-07-30T04:18:34;2.27;;;1.13;;
55069;SDS011;40967;52.070;8.596;2022-07-30T04:21:02;1.70;;;1.00;;
55069;SDS011;40967;52.070;8.596;2022-07-30T04:23:32;2.33;;;1.00;;
55069;SDS011;40967;52.070;8.596;2022-07-30T04:25:58;1.67;;;1.15;;
55069;SDS011;40967;52.070;8.596;2022-07-30T04:28:25;1.87;;;1.00;;
55069;SDS011;40967;52.070;8.596;2022-07-30T04:30:52;2.05;;;1.08;;
55069;SDS011;40967;52.070;8.596;2022-07-30T04:33:21;1.50;;;0.90;;
55069;SDS011;40967;52.070;8.596;2022-07-30T04:35:46;1.33;;;0.90;;
55069;SDS011;40967;52.070;8.596;2022-07-30T04:38:12;1.10;;;0.80;;
55069;SDS011;40967;52.070;8.596;2022-07-30T04:40:38;1.15;;;0.80;;
55069;SDS011;40967;52.070;8.596;2022-07-30T04:43:04;1.20;;;0.90;;
55069;SDS011;40967;52.070;8.596;2022-07-30T04:45:30;1.17;;;0.80;;
55069;SDS011;40967;52.070;8.596;2022-07-30T04:47:55;1.13;;;0.80;;
55069;SDS011;40967;52.070;8.596;2022-07-30T04:50:21;1.50;;;1.00;;
55069;SDS011;40967;52.070;8.596;2022-07-30T04:52:50;1.27;;;0.90;;
55069;SDS011;40967;52.070;8.596;2022-07-30T04:55:16;1.60;;;0.90;;
55069;SDS011;40967;52.070;8.596;2022-07-30T04:57:44;1.47;;;0.93;;
55069;SDS011;40967;52.070;8.596;2022-07-30T05:00:11;1.83;;;1.05;;
55069;SDS011;40967;52.070;8.596;2022-07-30T05:02:37;2.00;;;1.13;;
55069;SDS011;40967;52.070;8.596;2022-07-30T05:05:05;1.95;;;1.10;;
55069;SDS011;40967;52.070;8.596;2022-07-30T05:07:32;1.27;;;0.90;;
55069;SDS011;40967;52.070;8.596;2022-07-30T05:09:58;1.65;;;1.02;;
55069;SDS011;40967;52.070;8.596;2022-07-30T05:12:33;1.98;;;1.27;;
55069;SDS011;40967;52.070;8.596;2022-07-30T05:15:02;1.60;;;1.20;;
55069;SDS011;40967;52.070;8.596;2022-07-30T05:17:28;1.95;;;1.13;;
55069;SDS011;40967;52.070;8.596;2022-07-30T05:19:54;1.80;;;1.10;;
55069;SDS011;40967;52.070;8.596;2022-07-30T05:22:19;2.40;;;1.30;;
55069;SDS011;40967;52.070;8.596;2022-07-30T05:24:44;2.40;;;1.33;;
55069;SDS011;40967;52.070;8.596;2022-07-30T05:27:10;2.30;;;1.20;;
55069;SDS011;40967;52.070;8.596;2022-07-30T05:29:35;1.57;;;1.00;;
55069;SDS011;40967;52.070;8.596;2022-07-30T05:32:00;1.40;;;0.93;;
55069;SDS011;40967;52.070;8.596;2022-07-30T05:34:26;1.73;;;1.00;;
55069;SDS011;40967;52.070;8.596;2022-07-30T05:36:51;1.57;;;1.00;;
55069;SDS011;40967;52.070;8.596;2022-07-30T05:39:17;1.70;;;1.03;;
55069;SDS011;40967;52.070;8.596;2022-07-30T05:41:42;1.70;;;1.00;;
55069;SDS011;40967;52.070;8.596;2022-07-30T05:44:08;1.60;;;1.00;;
55069;SDS011;40967;52.070;8.596;2022-07-30T05:46:33;1.60;;;1.00;;
55069;SDS011;40967;52.070;8.596;2022-07-30T05:48:58;1.40;;;0.90;;
55069;SDS011;40967;52.070;8.596;2022-07-30T05:51:24;1.43;;;0.90;;
55069;SDS011;40967;52.070;8.596;2022-07-30T05:53:49;1.03;;;0.80;;
55069;SDS011;40967;52.070;8.596;2022-07-30T05:56:15;1.08;;;0.70;;
55069;SDS011;40967;52.070;8.596;2022-07-30T05:58:41;1.20;;;0.80;;
55069;SDS011;40967;52.070;8.596;2022-07-30T06:01:06;1.10;;;0.80;;
55069;SDS011;40967;52.070;8.596;2022-07-30T06:03:31;1.97;;;1.10;;
55069;SDS011;40967;52.070;8.596;2022-07-30T06:05:58;1.50;;;0.90;;
55069;SDS011;40967;52.070;8.596;2022-07-30T06:08:23;1.10;;;0.80;;
55069;SDS011;40967;52.070;8.596;2022-07-30T06:10:48;1.27;;;0.83;;
55069;SDS011;40967;52.070;8.596;2022-07-30T06:13:14;1.27;;;0.83;;
55069;SDS011;40967;52.070;8.596;2022-07-30T06:15:39;1.47;;;0.90;;
55069;SDS011;40967;52.070;8.596;2022-07-30T06:18:04;1.43;;;1.10;;
55069;SDS011;40967;52.070;8.596;2022-07-30T06:20:30;1.93;;;1.20;;
55069;SDS011;40967;52.070;8.596;2022-07-30T06:22:55;1.47;;;1.00;;
55069;SDS011;40967;52.070;8.596;2022-07-30T06:25:21;1.70;;;1.00;;
55069;SDS011;40967;52.070;8.596;2022-07-30T06:27:46;1.20;;;0.90;;
55069;SDS011;40967;52.070;8.596;2022-07-30T06:30:11;1.03;;;0.70;;
55069;SDS011;40967;52.070;8.596;2022-07-30T06:32:37;1.25;;;0.73;;
55069;SDS011;40967;52.070;8.596;2022-07-30T06:35:03;1.30;;;0.80;;
55069;SDS011;40967;52.070;8.596;2022-07-30T06:37:28;0.90;;;0.70;;
55069;SDS011;40967;52.070;8.596;2022-07-30T06:39:54;1.00;;;0.80;;
55069;SDS011;40967;52.070;8.596;2022-07-30T06:42:19;0.87;;;0.60;;
55069;SDS011;40967;52.070;8.596;2022-07-30T06:44:45;1.25;;;0.70;;
55069;SDS011;40967;52.070;8.596;2022-07-30T06:47:10;0.80;;;0.70;;
55069;SDS011;40967;52.070;8.596;2022-07-30T06:49:36;1.10;;;0.80;;
55069;SDS011;40967;52.070;8.596;2022-07-30T06:52:01;0.90;;;0.73;;
55069;SDS011;40967;52.070;8.596;2022-07-30T06:54:27;1.13;;;0.80;;
55069;SDS011;40967;52.070;8.596;2022-07-30T06:56:53;1.67;;;1.00;;
55069;SDS011;40967;52.070;8.596;2022-07-30T06:59:18;2.10;;;1.00;;
55069;SDS011;40967;52.070;8.596;2022-07-30T07:01:43;1.07;;;0.80;;
55069;SDS011;40967;52.070;8.596;2022-07-30T07:04:09;1.43;;;0.93;;
55069;SDS011;40967;52.070;8.596;2022-07-30T07:06:35;1.60;;;1.00;;
55069;SDS011;40967;52.070;8.596;2022-07-30T07:09:02;1.33;;;0.80;;
55069;SDS011;40967;52.070;8.596;2022-07-30T07:11:28;1.35;;;0.80;;
55069;SDS011;40967;52.070;8.596;2022-07-30T07:13:54;1.50;;;0.90;;
55069;SDS011;40967;52.070;8.596;2022-07-30T07:16:19;0.90;;;0.70;;
55069;SDS011;40967;52.070;8.596;2022-07-30T07:18:48;1.00;;;0.70;;
55069;SDS011;40967;52.070;8.596;2022-07-30T07:21:14;1.20;;;0.80;;
55069;SDS011;40967;52.070;8.596;2022-07-30T07:23:39;1.50;;;0.90;;
55069;SDS011;40967;52.070;8.596;2022-07-30T07:26:05;1.60;;;0.90;;
55069;SDS011;40967;52.070;8.596;2022-07-30T07:28:30;1.50;;;0.90;;
55069;SDS011;40967;52.070;8.596;2022-07-30T07:30:55;1.17;;;0.70;;
55069;SDS011;40967;52.070;8.596;2022-07-30T07:33:21;1.30;;;0.90;;
55069;SDS011;40967;52.070;8.596;2022-07-30T07:35:46;1.17;;;0.80;;
55069;SDS011;40967;52.070;8.596;2022-07-30T07:38:11;1.43;;;0.83;;
55069;SDS011;40967;52.070;8.596;2022-07-30T07:40:37;1.93;;;1.10;;
55069;SDS011;40967;52.070;8.596;2022-07-30T07:43:02;2.05;;;1.20;;
55069;SDS011;40967;52.070;8.596;2022-07-30T07:45:29;2.50;;;1.42;;
55069;SDS011;40967;52.070;8.596;2022-07-30T07:47:54;1.77;;;1.10;;
55069;SDS011;40967;52.070;8.596;2022-07-30T07:50:20;2.37;;;1.10;;
55069;SDS011;40967;52.070;8.596;2022-07-30T07:52:45;2.03;;;1.30;;
55069;SDS011;40967;52.070;8.596;2022-07-30T07:55:10;2.07;;;1.07;;
55069;SDS011;40967;52.070;8.596;2022-07-30T07:57:40;1.50;;;1.00;;
55069;SDS011;40967;52.070;8.596;2022-07-30T08:00:07;1.90;;;1.10;;
55069;SDS011;40967;52.070;8.596;2022-07-30T08:02:34;1.65;;;1.00;;
55069;SDS011;40967;52.070;8.596;2022-07-30T08:05:00;2.17;;;1.25;;
55069;SDS011;40967;52.070;8.596;2022-07-30T08:07:25;4.47;;;2.40;;
55069;SDS011;40967;52.070;8.596;2022-07-30T08:09:50;3.77;;;1.93;;
55069;SDS011;40967;52.070;8.596;2022-07-30T08:12:16;3.37;;;1.73;;
55069;SDS011;40967;52.070;8.596;2022-07-30T08:14:41;2.73;;;1.60;;
55069;SDS011;40967;52.070;8.596;2022-07-30T08:17:07;3.67;;;1.57;;
55069;SDS011;40967;52.070;8.596;2022-07-30T08:19:33;3.40;;;1.97;;
55069;SDS011;40967;52.070;8.596;2022-07-30T08:21:58;2.40;;;1.50;;
55069;SDS011;40967;52.070;8.596;2022-07-30T08:24:24;2.30;;;1.30;;
55069;SDS011;40967;52.070;8.596;2022-07-30T08:26:49;2.37;;;1.43;;
55069;SDS011;40967;52.070;8.596;2022-07-30T08:29:15;3.00;;;1.47;;
55069;SDS011;40967;52.070;8.596;2022-07-30T08:31:40;2.45;;;1.40;;
55069;SDS011;40967;52.070;8.596;2022-07-30T08:34:06;2.10;;;1.40;;
55069;SDS011;40967;52.070;8.596;2022-07-30T08:36:31;3.17;;;1.90;;
55069;SDS011;40967;52.070;8.596;2022-07-30T08:38:56;3.70;;;2.20;;
55069;SDS011;40967;52.070;8.596;2022-07-30T08:41:22;3.13;;;1.80;;
55069;SDS011;40967;52.070;8.596;2022-07-30T08:43:49;2.67;;;1.77;;
55069;SDS011;40967;52.070;8.596;2022-07-30T08:46:15;3.70;;;2.13;;
55069;SDS011;40967;52.070;8.596;2022-07-30T08:48:42;3.25;;;1.90;;
55069;SDS011;40967;52.070;8.596;2022-07-30T08:51:08;2.22;;;1.48;;
55069;SDS011;40967;52.070;8.596;2022-07-30T08:53:34;2.53;;;1.52;;
55069;SDS011;40967;52.070;8.596;2022-07-30T08:56:00;3.13;;;1.80;;
55069;SDS011;40967;52.070;8.596;2022-07-30T08:58:29;3.08;;;1.70;;
55069;SDS011;40967;52.070;8.596;2022-07-30T09:00:57;3.63;;;2.10;;
55069;SDS011;40967;52.070;8.596;2022-07-30T09:03:23;4.73;;;2.37;;
55069;SDS011;40967;52.070;8.596;2022-07-30T09:05:48;3.70;;;2.23;;
55069;SDS011;40967;52.070;8.596;2022-07-30T09:08:14;3.17;;;1.95;;
55069;SDS011;40967;52.070;8.596;2022-07-30T09:10:40;4.67;;;2.37;;
55069;SDS011;40967;52.070;8.596;2022-07-30T09:13:21;5.00;;;2.72;;
55069;SDS011;40967;52.070;8.596;2022-07-30T09:16:00;2.63;;;1.70;;
55069;SDS011;40967;52.070;8.596;2022-07-30T09:20:54;3.72;;;2.17;;
55069;SDS011;40967;52.070;8.596;2022-07-30T09:23:20;3.10;;;2.07;;
55069;SDS011;40967;52.070;8.596;2022-07-30T09:25:46;8.13;;;2.90;;
55069;SDS011;40967;52.070;8.596;2022-07-30T09:28:12;3.55;;;1.98;;
55069;SDS011;40967;52.070;8.596;2022-07-30T09:30:42;2.70;;;1.57;;
55069;SDS011;40967;52.070;8.596;2022-07-30T09:33:10;3.28;;;1.65;;
55069;SDS011;40967;52.070;8.596;2022-07-30T09:35:35;1.73;;;1.20;;
55069;SDS011;40967;52.070;8.596;2022-07-30T09:38:02;3.17;;;2.10;;
55069;SDS011;40967;52.070;8.596;2022-07-30T09:40:29;3.28;;;2.25;;
55069;SDS011;40967;52.070;8.596;2022-07-30T09:43:10;2.05;;;1.35;;
55069;SDS011;40967;52.070;8.596;2022-07-30T09:45:36;2.15;;;1.23;;
55069;SDS011;40967;52.070;8.596;2022-07-30T09:48:21;2.67;;;1.60;;
55069;SDS011;40967;52.070;8.596;2022-07-30T09:50:48;2.40;;;1.50;;
55069;SDS011;40967;52.070;8.596;2022-07-30T09:53:15;1.95;;;1.25;;
55069;SDS011;40967;52.070;8.596;2022-07-30T09:55:40;1.77;;;1.17;;
55069;SDS011;40967;52.070;8.596;2022-07-30T09:58:06;2.10;;;1.27;;
55069;SDS011;40967;52.070;8.596;2022-07-30T10:00:33;2.40;;;1.27;;
55069;SDS011;40967;52.070;8.596;2022-07-30T10:03:00;3.80;;;1.90;;
55069;SDS011;40967;52.070;8.596;2022-07-30T10:08:18;1.85;;;1.30;;
55069;SDS011;40967;52.070;8.596;2022-07-30T10:10:43;2.25;;;1.20;;
55069;SDS011;40967;52.070;8.596;2022-07-30T10:13:10;2.13;;;1.17;;
55069;SDS011;40967;52.070;8.596;2022-07-30T10:15:38;2.45;;;1.40;;
55069;SDS011;40967;52.070;8.596;2022-07-30T10:18:04;2.85;;;1.38;;
55069;SDS011;40967;52.070;8.596;2022-07-30T10:20:30;2.53;;;1.65;;
55069;SDS011;40967;52.070;8.596;2022-07-30T10:22:56;3.78;;;1.73;;
55069;SDS011;40967;52.070;8.596;2022-07-30T10:25:23;3.10;;;1.75;;
55069;SDS011;40967;52.070;8.596;2022-07-30T10:27:50;4.23;;;2.20;;
55069;SDS011;40967;52.070;8.596;2022-07-30T10:30:17;4.30;;;1.80;;
55069;SDS011;40967;52.070;8.596;2022-07-30T10:32:43;2.45;;;1.23;;
55069;SDS011;40967;52.070;8.596;2022-07-30T10:35:09;1.30;;;1.10;;
55069;SDS011;40967;52.070;8.596;2022-07-30T10:37:36;2.03;;;1.10;;
55069;SDS011;40967;52.070;8.596;2022-07-30T10:42:49;2.72;;;1.30;;
55069;SDS011;40967;52.070;8.596;2022-07-30T10:48:21;3.13;;;1.85;;
55069;SDS011;40967;52.070;8.596;2022-07-30T10:50:48;2.83;;;1.70;;
55069;SDS011;40967;52.070;8.596;2022-07-30T10:53:32;5.63;;;3.60;;
55069;SDS011;40967;52.070;8.596;2022-07-30T10:56:18;5.63;;;3.07;;
55069;SDS011;40967;52.070;8.596;2022-07-30T11:04:25;3.20;;;1.90;;
55069;SDS011;40967;52.070;8.596;2022-07-30T11:06:51;4.80;;;2.30;;
55069;SDS011;40967;52.070;8.596;2022-07-30T11:09:48;2.80;;;1.70;;
55069;SDS011;40967;52.070;8.596;2022-07-30T11:12:14;4.40;;;2.47;;
55069;SDS011;40967;52.070;8.596;2022-07-30T11:17:15;3.05;;;1.80;;
55069;SDS011;40967;52.070;8.596;2022-07-30T11:22:33;3.93;;;1.90;;
55069;SDS011;40967;52.070;8.596;2022-07-30T11:25:03;3.13;;;1.85;;
55069;SDS011;40967;52.070;8.596;2022-07-30T11:27:36;2.17;;;1.25;;
55069;SDS011;40967;52.070;8.596;2022-07-30T11:30:03;1.85;;;1.10;;
55069;SDS011;40967;52.070;8.596;2022-07-30T11:32:32;2.75;;;1.35;;
55069;SDS011;40967;52.070;8.596;2022-07-30T11:38:07;3.40;;;1.98;;
55069;SDS011;40967;52.070;8.596;2022-07-30T11:43:22;3.60;;;1.88;;
55069;SDS011;40967;52.070;8.596;2022-07-30T11:45:51;2.13;;;1.20;;
55069;SDS011;40967;52.070;8.596;2022-07-30T11:48:28;2.38;;;1.50;;
55069;SDS011;40967;52.070;8.596;2022-07-30T11:50:54;2.43;;;1.30;;
55069;SDS011;40967;52.070;8.596;2022-07-30T11:53:20;2.53;;;1.40;;
55069;SDS011;40967;52.070;8.596;2022-07-30T11:55:52;2.13;;;1.30;;
55069;SDS011;40967;52.070;8.596;2022-07-30T11:58:33;2.50;;;1.40;;
55069;SDS011;40967;52.070;8.596;2022-07-30T12:01:21;1.77;;;1.20;;
55069;SDS011;40967;52.070;8.596;2022-07-30T12:03:46;1.80;;;1.10;;
55069;SDS011;40967;52.070;8.596;2022-07-30T12:06:13;1.90;;;1.30;;
55069;SDS011;40967;52.070;8.596;2022-07-30T12:08:44;3.13;;;1.60;;
55069;SDS011;40967;52.070;8.596;2022-07-30T12:11:11;3.55;;;1.80;;
55069;SDS011;40967;52.070;8.596;2022-07-30T12:13:38;2.55;;;1.48;;
55069;SDS011;40967;52.070;8.596;2022-07-30T12:16:23;2.50;;;1.50;;
55069;SDS011;40967;52.070;8.596;2022-07-30T12:18:48;2.58;;;1.60;;
55069;SDS011;40967;52.070;8.596;2022-07-30T12:21:13;2.40;;;1.20;;
55069;SDS011;40967;52.070;8.596;2022-07-30T12:23:40;1.90;;;1.13;;
55069;SDS011;40967;52.070;8.596;2022-07-30T12:26:07;3.10;;;1.53;;
55069;SDS011;40967;52.070;8.596;2022-07-30T12:28:33;4.53;;;1.98;;
55069;SDS011;40967;52.070;8.596;2022-07-30T12:31:00;3.05;;;1.70;;
55069;SDS011;40967;52.070;8.596;2022-07-30T12:33:29;3.20;;;1.80;;
55069;SDS011;40967;52.070;8.596;2022-07-30T12:35:56;3.08;;;1.60;;
55069;SDS011;40967;52.070;8.596;2022-07-30T12:38:23;2.20;;;1.40;;
55069;SDS011;40967;52.070;8.596;2022-07-30T12:41:02;1.77;;;1.20;;
55069;SDS011;40967;52.070;8.596;2022-07-30T12:46:20;3.97;;;1.90;;
55069;SDS011;40967;52.070;8.596;2022-07-30T12:48:56;4.82;;;1.75;;
55069;SDS011;40967;52.070;8.596;2022-07-30T12:51:23;3.47;;;1.80;;
55069;SDS011;40967;52.070;8.596;2022-07-30T12:53:50;3.28;;;1.67;;
55069;SDS011;40967;52.070;8.596;2022-07-30T12:56:17;3.38;;;1.70;;
55069;SDS011;40967;52.070;8.596;2022-07-30T12:58:44;2.25;;;1.35;;
55069;SDS011;40967;52.070;8.596;2022-07-30T13:01:10;2.90;;;1.52;;
55069;SDS011;40967;52.070;8.596;2022-07-30T13:03:36;3.47;;;1.63;;
55069;SDS011;40967;52.070;8.596;2022-07-30T13:06:14;2.67;;;1.70;;
55069;SDS011;40967;52.070;8.596;2022-07-30T13:11:11;2.55;;;1.40;;
55069;SDS011;40967;52.070;8.596;2022-07-30T13:13:37;3.00;;;1.40;;
55069;SDS011;40967;52.070;8.596;2022-07-30T13:16:03;2.10;;;1.20;;
55069;SDS011;40967;52.070;8.596;2022-07-30T13:18:30;1.52;;;1.00;;
55069;SDS011;40967;52.070;8.596;2022-07-30T13:20:57;1.90;;;1.27;;
55069;SDS011;40967;52.070;8.596;2022-07-30T13:23:23;2.15;;;1.20;;
55069;SDS011;40967;52.070;8.596;2022-07-30T13:25:49;2.95;;;1.35;;
55069;SDS011;40967;52.070;8.596;2022-07-30T13:28:15;2.42;;;1.30;;
55069;SDS011;40967;52.070;8.596;2022-07-30T13:30:41;2.00;;;1.00;;
55069;SDS011;40967;52.070;8.596;2022-07-30T13:33:07;2.28;;;1.20;;
55069;SDS011;40967;52.070;8.596;2022-07-30T13:35:32;2.03;;;1.13;;
55069;SDS011;40967;52.070;8.596;2022-07-30T13:37:58;2.17;;;1.10;;
55069;SDS011;40967;52.070;8.596;2022-07-30T13:40:25;2.33;;;1.40;;
55069;SDS011;40967;52.070;8.596;2022-07-30T13:42:51;1.98;;;1.30;;
55069;SDS011;40967;52.070;8.596;2022-07-30T13:45:16;3.33;;;1.50;;
55069;SDS011;40967;52.070;8.596;2022-07-30T13:47:42;1.77;;;1.10;;
55069;SDS011;40967;52.070;8.596;2022-07-30T13:50:07;1.70;;;1.10;;
55069;SDS011;40967;52.070;8.596;2022-07-30T13:52:33;1.80;;;1.00;;
55069;SDS011;40967;52.070;8.596;2022-07-30T13:54:58;1.37;;;1.03;;
55069;SDS011;40967;52.070;8.596;2022-07-30T13:57:24;4.37;;;1.50;;
55069;SDS011;40967;52.070;8.596;2022-07-30T13:59:49;1.57;;;1.10;;
55069;SDS011;40967;52.070;8.596;2022-07-30T14:02:14;1.95;;;1.25;;
55069;SDS011;40967;52.070;8.596;2022-07-30T14:04:40;2.00;;;1.10;;
55069;SDS011;40967;52.070;8.596;2022-07-30T14:07:05;1.73;;;1.00;;
55069;SDS011;40967;52.070;8.596;2022-07-30T14:09:30;1.37;;;0.97;;
55069;SDS011;40967;52.070;8.596;2022-07-30T14:11:56;3.70;;;1.10;;
55069;SDS011;40967;52.070;8.596;2022-07-30T14:14:21;1.77;;;1.10;;
55069;SDS011;40967;52.070;8.596;2022-07-30T14:16:48;1.47;;;0.93;;
55069;SDS011;40967;52.070;8.596;2022-07-30T14:19:14;1.75;;;1.13;;
55069;SDS011;40967;52.070;8.596;2022-07-30T14:21:41;3.35;;;1.60;;
55069;SDS011;40967;52.070;8.596;2022-07-30T14:24:06;2.80;;;1.63;;
55069;SDS011;40967;52.070;8.596;2022-07-30T14:26:32;3.07;;;1.40;;
55069;SDS011;40967;52.070;8.596;2022-07-30T14:28:57;4.03;;;1.90;;
55069;SDS011;40967;52.070;8.596;2022-07-30T14:31:23;2.65;;;1.55;;
55069;SDS011;40967;52.070;8.596;2022-07-30T14:33:48;2.90;;;1.63;;
55069;SDS011;40967;52.070;8.596;2022-07-30T14:36:13;1.73;;;1.10;;
55069;SDS011;40967;52.070;8.596;2022-07-30T14:38:39;3.20;;;1.40;;
55069;SDS011;40967;52.070;8.596;2022-07-30T14:41:05;1.80;;;1.00;;
55069;SDS011;40967;52.070;8.596;2022-07-30T14:43:31;1.90;;;1.20;;
55069;SDS011;40967;52.070;8.596;2022-07-30T14:45:56;1.92;;;1.17;;
55069;SDS011;40967;52.070;8.596;2022-07-30T14:48:22;2.63;;;1.15;;
55069;SDS011;40967;52.070;8.596;2022-07-30T14:50:47;1.90;;;1.00;;
55069;SDS011;40967;52.070;8.596;2022-07-30T14:53:12;1.30;;;0.93;;
55069;SDS011;40967;52.070;8.596;2022-07-30T14:55:38;1.00;;;0.70;;
55069;SDS011;40967;52.070;8.596;2022-07-30T14:58:03;1.90;;;1.07;;
55069;SDS011;40967;52.070;8.596;2022-07-30T15:00:28;2.47;;;1.23;;
55069;SDS011;40967;52.070;8.596;2022-07-30T15:02:54;1.50;;;1.10;;
55069;SDS011;40967;52.070;8.596;2022-07-30T15:05:19;2.33;;;1.38;;
55069;SDS011;40967;52.070;8.596;2022-07-30T15:07:45;3.08;;;1.33;;
55069;SDS011;40967;52.070;8.596;2022-07-30T15:10:10;2.50;;;1.30;;
55069;SDS011;40967;52.070;8.596;2022-07-30T15:12:35;2.57;;;1.40;;
55069;SDS011;40967;52.070;8.596;2022-07-30T15:15:01;3.03;;;1.60;;
55069;SDS011;40967;52.070;8.596;2022-07-30T15:17:27;2.37;;;1.40;;
55069;SDS011;40967;52.070;8.596;2022-07-30T15:19:52;3.70;;;1.88;;
55069;SDS011;40967;52.070;8.596;2022-07-30T15:22:18;2.58;;;1.55;;
55069;SDS011;40967;52.070;8.596;2022-07-30T15:24:44;2.88;;;1.00;;
55069;SDS011;40967;52.070;8.596;2022-07-30T15:27:09;1.60;;;1.10;;